sensor_id;sensor_type;location;lat;lon;timestamp;P1;durP1;ratioP1;P2;durP2;ratioP2
44147;SDS011;29810;55.848;37.368;2023-03-01T00:02:07;4.87;;;0.77;;
44147;SDS011;29810;55.848;37.368;2023-03-01T00:05:09;1.35;;;0.43;;
44147;SDS011;29810;55.848;37.368;2023-03-01T00:08:10;2.12;;;0.50;;
44147;SDS011;29810;55.848;37.368;2023-03-01T00:11:13;2.12;;;0.52;;
44147;SDS011;29810;55.848;37.368;2023-03-01T00:14:22;2.90;;;0.60;;
44147;SDS011;29810;55.848;37.368;2023-03-01T00:17:24;2.03;;;0.47;;
44147;SDS011;29810;55.848;37.368;2023-03-01T00:20:26;2.05;;;0.50;;
44147;SDS011;29810;55.848;37.368;2023-03-01T00:23:28;2.97;;;0.50;;
44147;SDS011;29810;55.848;37.368;2023-03-01T00:26:29;2.70;;;0.40;;
44147;SDS011;29810;55.848;37.368;2023-03-01T00:29:34;1.85;;;0.40;;
44147;SDS011;29810;55.848;37.368;2023-03-01T00:32:35;2.80;;;0.80;;
44147;SDS011;29810;55.848;37.368;2023-03-01T00:35:38;1.87;;;0.37;;
44147;SDS011;29810;55.848;37.368;2023-03-01T00:38:40;1.90;;;0.73;;
44147;SDS011;29810;55.848;37.368;2023-03-01T00:41:43;2.47;;;0.50;;
44147;SDS011;29810;55.848;37.368;2023-03-01T00:44:45;1.08;;;0.32;;
44147;SDS011;29810;55.848;37.368;2023-03-01T00:47:47;2.65;;;0.50;;
44147;SDS011;29810;55.848;37.368;2023-03-01T00:50:49;2.85;;;0.50;;
44147;SDS011;29810;55.848;37.368;2023-03-01T00:53:52;1.35;;;0.40;;
44147;SDS011;29810;55.848;37.368;2023-03-01T00:56:54;1.35;;;0.50;;
44147;SDS011;29810;55.848;37.368;2023-03-01T00:59:56;1.60;;;0.60;;
44147;SDS011;29810;55.848;37.368;2023-03-01T01:02:58;2.30;;;0.47;;
44147;SDS011;29810;55.848;37.368;2023-03-01T01:05:59;4.15;;;0.45;;
44147;SDS011;29810;55.848;37.368;2023-03-01T01:09:11;2.15;;;0.50;;
44147;SDS011;29810;55.848;37.368;2023-03-01T01:12:20;3.00;;;0.50;;
44147;SDS011;29810;55.848;37.368;2023-03-01T01:15:21;2.37;;;0.60;;
44147;SDS011;29810;55.848;37.368;2023-03-01T01:18:23;1.75;;;0.50;;
44147;SDS011;29810;55.848;37.368;2023-03-01T01:21:25;2.15;;;0.60;;
44147;SDS011;29810;55.848;37.368;2023-03-01T01:24:28;2.37;;;0.50;;
44147;SDS011;29810;55.848;37.368;2023-03-01T01:27:30;3.90;;;0.45;;
44147;SDS011;29810;55.848;37.368;2023-03-01T01:30:31;3.05;;;0.43;;
44147;SDS011;29810;55.848;37.368;2023-03-01T01:33:33;2.12;;;0.50;;
44147;SDS011;29810;55.848;37.368;2023-03-01T01:36:35;2.28;;;0.65;;
44147;SDS011;29810;55.848;37.368;2023-03-01T01:39:36;2.35;;;0.62;;
44147;SDS011;29810;55.848;37.368;2023-03-01T01:42:38;1.90;;;0.40;;
44147;SDS011;29810;55.848;37.368;2023-03-01T01:45:40;1.58;;;0.50;;
44147;SDS011;29810;55.848;37.368;2023-03-01T01:48:47;1.62;;;0.55;;
44147;SDS011;29810;55.848;37.368;2023-03-01T01:55:23;2.35;;;0.47;;
44147;SDS011;29810;55.848;37.368;2023-03-01T01:58:28;3.35;;;0.60;;
44147;SDS011;29810;55.848;37.368;2023-03-01T02:01:32;1.62;;;0.57;;
44147;SDS011;29810;55.848;37.368;2023-03-01T02:04:34;1.05;;;0.37;;
44147;SDS011;29810;55.848;37.368;2023-03-01T02:07:35;1.10;;;0.30;;
44147;SDS011;29810;55.848;37.368;2023-03-01T02:10:40;1.27;;;0.50;;
44147;SDS011;29810;55.848;37.368;2023-03-01T02:13:42;1.70;;;0.40;;
44147;SDS011;29810;55.848;37.368;2023-03-01T02:16:46;3.30;;;0.52;;
44147;SDS011;29810;55.848;37.368;2023-03-01T02:23:09;1.92;;;0.45;;
44147;SDS011;29810;55.848;37.368;2023-03-01T02:26:33;1.50;;;0.60;;
44147;SDS011;29810;55.848;37.368;2023-03-01T02:29:42;1.00;;;0.45;;
44147;SDS011;29810;55.848;37.368;2023-03-01T02:32:45;2.12;;;0.70;;
44147;SDS011;29810;55.848;37.368;2023-03-01T02:35:47;2.10;;;0.50;;
44147;SDS011;29810;55.848;37.368;2023-03-01T02:38:49;3.37;;;0.70;;
44147;SDS011;29810;55.848;37.368;2023-03-01T02:41:54;2.30;;;0.40;;
44147;SDS011;29810;55.848;37.368;2023-03-01T02:44:58;1.42;;;0.47;;
44147;SDS011;29810;55.848;37.368;2023-03-01T02:47:59;2.80;;;0.40;;
44147;SDS011;29810;55.848;37.368;2023-03-01T02:54:25;2.35;;;0.40;;
44147;SDS011;29810;55.848;37.368;2023-03-01T02:57:40;2.60;;;0.50;;
44147;SDS011;29810;55.848;37.368;2023-03-01T03:00:43;1.52;;;0.60;;
44147;SDS011;29810;55.848;37.368;2023-03-01T03:03:48;2.72;;;0.57;;
44147;SDS011;29810;55.848;37.368;2023-03-01T03:06:50;2.70;;;0.40;;
44147;SDS011;29810;55.848;37.368;2023-03-01T03:09:52;1.95;;;0.40;;
44147;SDS011;29810;55.848;37.368;2023-03-01T03:12:55;1.48;;;0.50;;
44147;SDS011;29810;55.848;37.368;2023-03-01T03:15:59;3.08;;;0.80;;
44147;SDS011;29810;55.848;37.368;2023-03-01T03:19:00;1.62;;;0.50;;
44147;SDS011;29810;55.848;37.368;2023-03-01T03:22:06;2.15;;;0.68;;
44147;SDS011;29810;55.848;37.368;2023-03-01T03:25:09;2.08;;;0.60;;
44147;SDS011;29810;55.848;37.368;2023-03-01T03:28:11;3.90;;;0.68;;
44147;SDS011;29810;55.848;37.368;2023-03-01T03:31:13;2.17;;;0.62;;
44147;SDS011;29810;55.848;37.368;2023-03-01T03:34:15;2.25;;;0.70;;
44147;SDS011;29810;55.848;37.368;2023-03-01T03:37:18;1.90;;;0.50;;
44147;SDS011;29810;55.848;37.368;2023-03-01T03:40:39;3.08;;;0.80;;
44147;SDS011;29810;55.848;37.368;2023-03-01T03:43:42;4.62;;;0.85;;
44147;SDS011;29810;55.848;37.368;2023-03-01T03:46:44;3.15;;;0.80;;
44147;SDS011;29810;55.848;37.368;2023-03-01T03:49:45;2.58;;;0.68;;
44147;SDS011;29810;55.848;37.368;2023-03-01T03:52:47;2.30;;;0.70;;
44147;SDS011;29810;55.848;37.368;2023-03-01T03:55:49;3.28;;;0.60;;
44147;SDS011;29810;55.848;37.368;2023-03-01T03:58:51;2.10;;;0.70;;
44147;SDS011;29810;55.848;37.368;2023-03-01T04:01:53;4.78;;;0.98;;
44147;SDS011;29810;55.848;37.368;2023-03-01T04:04:55;3.42;;;0.60;;
44147;SDS011;29810;55.848;37.368;2023-03-01T04:07:56;1.95;;;0.88;;
44147;SDS011;29810;55.848;37.368;2023-03-01T04:11:08;4.72;;;1.30;;
44147;SDS011;29810;55.848;37.368;2023-03-01T04:14:28;1.52;;;0.57;;
44147;SDS011;29810;55.848;37.368;2023-03-01T04:17:29;2.03;;;0.55;;
44147;SDS011;29810;55.848;37.368;2023-03-01T04:20:32;1.23;;;0.60;;
44147;SDS011;29810;55.848;37.368;2023-03-01T04:23:36;4.82;;;1.25;;
44147;SDS011;29810;55.848;37.368;2023-03-01T04:26:37;1.98;;;0.62;;
44147;SDS011;29810;55.848;37.368;2023-03-01T04:29:41;2.92;;;0.60;;
44147;SDS011;29810;55.848;37.368;2023-03-01T04:32:45;2.17;;;0.77;;
44147;SDS011;29810;55.848;37.368;2023-03-01T04:35:47;2.70;;;0.80;;
44147;SDS011;29810;55.848;37.368;2023-03-01T04:38:54;3.50;;;1.02;;
44147;SDS011;29810;55.848;37.368;2023-03-01T04:41:56;3.55;;;0.77;;
44147;SDS011;29810;55.848;37.368;2023-03-01T04:45:00;2.20;;;0.65;;
44147;SDS011;29810;55.848;37.368;2023-03-01T04:48:04;2.40;;;0.70;;
44147;SDS011;29810;55.848;37.368;2023-03-01T04:51:07;2.60;;;0.90;;
44147;SDS011;29810;55.848;37.368;2023-03-01T04:54:09;4.22;;;0.85;;
44147;SDS011;29810;55.848;37.368;2023-03-01T04:57:11;3.72;;;1.00;;
44147;SDS011;29810;55.848;37.368;2023-03-01T05:00:14;3.20;;;0.73;;
44147;SDS011;29810;55.848;37.368;2023-03-01T05:03:21;2.62;;;0.90;;
44147;SDS011;29810;55.848;37.368;2023-03-01T05:06:24;1.55;;;0.60;;
44147;SDS011;29810;55.848;37.368;2023-03-01T05:09:25;4.82;;;1.00;;
44147;SDS011;29810;55.848;37.368;2023-03-01T05:12:27;3.87;;;1.00;;
44147;SDS011;29810;55.848;37.368;2023-03-01T05:15:29;2.28;;;0.80;;
44147;SDS011;29810;55.848;37.368;2023-03-01T05:18:33;3.25;;;0.98;;
44147;SDS011;29810;55.848;37.368;2023-03-01T05:21:35;2.53;;;0.90;;
44147;SDS011;29810;55.848;37.368;2023-03-01T05:24:57;2.10;;;0.65;;
44147;SDS011;29810;55.848;37.368;2023-03-01T05:27:59;2.78;;;0.73;;
44147;SDS011;29810;55.848;37.368;2023-03-01T05:31:05;4.18;;;0.70;;
44147;SDS011;29810;55.848;37.368;2023-03-01T05:34:10;2.40;;;0.70;;
44147;SDS011;29810;55.848;37.368;2023-03-01T05:37:15;2.72;;;0.70;;
44147;SDS011;29810;55.848;37.368;2023-03-01T05:40:18;2.67;;;0.98;;
44147;SDS011;29810;55.848;37.368;2023-03-01T05:43:22;2.35;;;1.00;;
44147;SDS011;29810;55.848;37.368;2023-03-01T05:46:24;1.92;;;0.80;;
44147;SDS011;29810;55.848;37.368;2023-03-01T05:49:28;3.67;;;1.17;;
44147;SDS011;29810;55.848;37.368;2023-03-01T05:52:31;3.33;;;0.82;;
44147;SDS011;29810;55.848;37.368;2023-03-01T05:55:33;4.03;;;1.30;;
44147;SDS011;29810;55.848;37.368;2023-03-01T05:58:35;3.75;;;1.12;;
44147;SDS011;29810;55.848;37.368;2023-03-01T06:01:37;3.40;;;1.10;;
44147;SDS011;29810;55.848;37.368;2023-03-01T06:04:39;4.30;;;1.25;;
44147;SDS011;29810;55.848;37.368;2023-03-01T06:07:41;3.78;;;1.10;;
44147;SDS011;29810;55.848;37.368;2023-03-01T06:10:43;4.32;;;1.25;;
44147;SDS011;29810;55.848;37.368;2023-03-01T06:13:44;2.65;;;0.90;;
44147;SDS011;29810;55.848;37.368;2023-03-01T06:16:46;4.45;;;1.33;;
44147;SDS011;29810;55.848;37.368;2023-03-01T06:19:48;3.05;;;1.15;;
44147;SDS011;29810;55.848;37.368;2023-03-01T06:22:51;3.58;;;1.30;;
44147;SDS011;29810;55.848;37.368;2023-03-01T06:25:53;4.20;;;1.17;;
44147;SDS011;29810;55.848;37.368;2023-03-01T06:28:54;4.53;;;1.40;;
44147;SDS011;29810;55.848;37.368;2023-03-01T06:31:56;3.28;;;1.10;;
44147;SDS011;29810;55.848;37.368;2023-03-01T06:34:58;4.53;;;1.40;;
44147;SDS011;29810;55.848;37.368;2023-03-01T06:38:00;3.28;;;1.20;;
44147;SDS011;29810;55.848;37.368;2023-03-01T06:41:02;4.57;;;1.42;;
44147;SDS011;29810;55.848;37.368;2023-03-01T06:44:04;3.45;;;1.25;;
44147;SDS011;29810;55.848;37.368;2023-03-01T06:47:07;3.30;;;1.23;;
44147;SDS011;29810;55.848;37.368;2023-03-01T06:50:10;4.43;;;1.27;;
44147;SDS011;29810;55.848;37.368;2023-03-01T06:53:12;5.00;;;1.40;;
44147;SDS011;29810;55.848;37.368;2023-03-01T06:56:14;3.85;;;1.20;;
44147;SDS011;29810;55.848;37.368;2023-03-01T06:59:16;3.15;;;1.12;;
44147;SDS011;29810;55.848;37.368;2023-03-01T07:02:18;5.22;;;1.55;;
44147;SDS011;29810;55.848;37.368;2023-03-01T07:05:20;3.33;;;1.30;;
44147;SDS011;29810;55.848;37.368;2023-03-01T07:08:22;5.50;;;1.50;;
44147;SDS011;29810;55.848;37.368;2023-03-01T07:11:23;4.07;;;1.25;;
44147;SDS011;29810;55.848;37.368;2023-03-01T07:14:25;3.92;;;1.30;;
44147;SDS011;29810;55.848;37.368;2023-03-01T07:17:27;3.03;;;1.02;;
44147;SDS011;29810;55.848;37.368;2023-03-01T07:20:29;4.82;;;1.17;;
44147;SDS011;29810;55.848;37.368;2023-03-01T07:23:31;5.62;;;1.83;;
44147;SDS011;29810;55.848;37.368;2023-03-01T07:26:33;5.47;;;1.52;;
44147;SDS011;29810;55.848;37.368;2023-03-01T07:29:34;4.15;;;1.83;;
44147;SDS011;29810;55.848;37.368;2023-03-01T07:32:37;7.35;;;1.62;;
44147;SDS011;29810;55.848;37.368;2023-03-01T07:35:40;4.22;;;1.48;;
44147;SDS011;29810;55.848;37.368;2023-03-01T07:38:41;5.32;;;1.80;;
44147;SDS011;29810;55.848;37.368;2023-03-01T07:41:43;4.20;;;1.48;;
44147;SDS011;29810;55.848;37.368;2023-03-01T07:44:44;4.75;;;1.65;;
44147;SDS011;29810;55.848;37.368;2023-03-01T07:47:46;4.93;;;1.90;;
44147;SDS011;29810;55.848;37.368;2023-03-01T07:50:47;5.55;;;1.90;;
44147;SDS011;29810;55.848;37.368;2023-03-01T07:53:49;4.60;;;1.52;;
44147;SDS011;29810;55.848;37.368;2023-03-01T07:56:50;5.70;;;1.70;;
44147;SDS011;29810;55.848;37.368;2023-03-01T07:59:52;4.57;;;1.40;;
44147;SDS011;29810;55.848;37.368;2023-03-01T08:02:53;3.60;;;1.50;;
44147;SDS011;29810;55.848;37.368;2023-03-01T08:05:55;5.60;;;1.65;;
44147;SDS011;29810;55.848;37.368;2023-03-01T08:08:56;4.62;;;1.62;;
44147;SDS011;29810;55.848;37.368;2023-03-01T08:11:59;6.40;;;2.15;;
44147;SDS011;29810;55.848;37.368;2023-03-01T08:15:00;4.35;;;1.30;;
44147;SDS011;29810;55.848;37.368;2023-03-01T08:18:04;4.30;;;1.50;;
44147;SDS011;29810;55.848;37.368;2023-03-01T08:21:08;5.90;;;1.40;;
44147;SDS011;29810;55.848;37.368;2023-03-01T08:24:12;2.90;;;1.33;;
44147;SDS011;29810;55.848;37.368;2023-03-01T08:27:14;3.15;;;1.37;;
44147;SDS011;29810;55.848;37.368;2023-03-01T08:30:17;2.30;;;1.20;;
44147;SDS011;29810;55.848;37.368;2023-03-01T08:33:19;5.57;;;1.52;;
44147;SDS011;29810;55.848;37.368;2023-03-01T08:36:29;4.60;;;1.15;;
44147;SDS011;29810;55.848;37.368;2023-03-01T08:39:32;4.10;;;1.60;;
44147;SDS011;29810;55.848;37.368;2023-03-01T08:42:34;5.60;;;1.48;;
44147;SDS011;29810;55.848;37.368;2023-03-01T08:45:35;5.70;;;1.48;;
44147;SDS011;29810;55.848;37.368;2023-03-01T08:48:37;4.80;;;1.50;;
44147;SDS011;29810;55.848;37.368;2023-03-01T08:51:39;3.42;;;1.42;;
44147;SDS011;29810;55.848;37.368;2023-03-01T08:54:41;3.08;;;1.20;;
44147;SDS011;29810;55.848;37.368;2023-03-01T08:57:43;4.05;;;1.20;;
44147;SDS011;29810;55.848;37.368;2023-03-01T09:00:45;4.18;;;1.23;;
44147;SDS011;29810;55.848;37.368;2023-03-01T09:03:48;3.87;;;1.27;;
44147;SDS011;29810;55.848;37.368;2023-03-01T09:06:50;6.35;;;1.95;;
44147;SDS011;29810;55.848;37.368;2023-03-01T09:09:52;4.18;;;1.30;;
44147;SDS011;29810;55.848;37.368;2023-03-01T09:12:56;4.43;;;1.37;;
44147;SDS011;29810;55.848;37.368;2023-03-01T09:15:58;4.90;;;1.37;;
44147;SDS011;29810;55.848;37.368;2023-03-01T09:19:00;4.47;;;1.30;;
44147;SDS011;29810;55.848;37.368;2023-03-01T09:22:03;5.62;;;1.48;;
44147;SDS011;29810;55.848;37.368;2023-03-01T09:25:06;3.22;;;1.30;;
44147;SDS011;29810;55.848;37.368;2023-03-01T09:28:08;4.43;;;1.35;;
44147;SDS011;29810;55.848;37.368;2023-03-01T09:31:12;4.80;;;1.65;;
44147;SDS011;29810;55.848;37.368;2023-03-01T09:34:14;3.22;;;1.25;;
44147;SDS011;29810;55.848;37.368;2023-03-01T09:37:20;5.60;;;1.50;;
44147;SDS011;29810;55.848;37.368;2023-03-01T09:40:22;3.42;;;1.05;;
44147;SDS011;29810;55.848;37.368;2023-03-01T09:43:30;3.10;;;1.08;;
44147;SDS011;29810;55.848;37.368;2023-03-01T09:46:42;5.80;;;1.42;;
44147;SDS011;29810;55.848;37.368;2023-03-01T09:50:33;2.12;;;1.12;;
44147;SDS011;29810;55.848;37.368;2023-03-01T09:53:18;4.55;;;1.20;;
44147;SDS011;29810;55.848;37.368;2023-03-01T09:59:37;4.57;;;1.40;;
44147;SDS011;29810;55.848;37.368;2023-03-01T10:02:59;6.43;;;1.52;;
44147;SDS011;29810;55.848;37.368;2023-03-01T10:09:21;3.37;;;1.30;;
44147;SDS011;29810;55.848;37.368;2023-03-01T10:12:27;3.12;;;1.05;;
44147;SDS011;29810;55.848;37.368;2023-03-01T10:15:37;2.72;;;0.82;;
44147;SDS011;29810;55.848;37.368;2023-03-01T10:18:47;5.03;;;1.48;;
44147;SDS011;29810;55.848;37.368;2023-03-01T10:21:55;2.97;;;1.00;;
44147;SDS011;29810;55.848;37.368;2023-03-01T10:25:02;3.70;;;1.42;;
44147;SDS011;29810;55.848;37.368;2023-03-01T10:28:07;2.60;;;1.15;;
44147;SDS011;29810;55.848;37.368;2023-03-01T10:31:19;4.18;;;1.27;;
44147;SDS011;29810;55.848;37.368;2023-03-01T10:34:30;3.50;;;1.15;;
44147;SDS011;29810;55.848;37.368;2023-03-01T10:37:34;4.53;;;1.35;;
44147;SDS011;29810;55.848;37.368;2023-03-01T10:40:53;4.65;;;1.30;;
44147;SDS011;29810;55.848;37.368;2023-03-01T10:43:59;4.45;;;1.40;;
44147;SDS011;29810;55.848;37.368;2023-03-01T10:47:01;4.12;;;1.27;;
44147;SDS011;29810;55.848;37.368;2023-03-01T10:50:04;3.65;;;1.20;;
44147;SDS011;29810;55.848;37.368;2023-03-01T10:53:24;2.80;;;1.07;;
44147;SDS011;29810;55.848;37.368;2023-03-01T10:56:30;3.55;;;1.23;;
44147;SDS011;29810;55.848;37.368;2023-03-01T10:59:48;2.80;;;1.00;;
44147;SDS011;29810;55.848;37.368;2023-03-01T11:03:13;2.50;;;0.93;;
44147;SDS011;29810;55.848;37.368;2023-03-01T11:06:21;2.72;;;1.00;;
44147;SDS011;29810;55.848;37.368;2023-03-01T11:09:23;4.32;;;1.30;;
44147;SDS011;29810;55.848;37.368;2023-03-01T11:12:34;4.22;;;1.20;;
44147;SDS011;29810;55.848;37.368;2023-03-01T11:15:59;3.80;;;1.15;;
44147;SDS011;29810;55.848;37.368;2023-03-01T11:22:13;4.10;;;1.00;;
44147;SDS011;29810;55.848;37.368;2023-03-01T11:25:27;4.85;;;1.23;;
44147;SDS011;29810;55.848;37.368;2023-03-01T11:28:36;3.83;;;1.10;;
44147;SDS011;29810;55.848;37.368;2023-03-01T11:31:41;3.07;;;0.70;;
44147;SDS011;29810;55.848;37.368;2023-03-01T11:38:09;6.85;;;1.20;;
44147;SDS011;29810;55.848;37.368;2023-03-01T11:41:17;4.07;;;1.10;;
44147;SDS011;29810;55.848;37.368;2023-03-01T11:44:28;3.30;;;0.90;;
44147;SDS011;29810;55.848;37.368;2023-03-01T11:51:22;2.65;;;1.00;;
44147;SDS011;29810;55.848;37.368;2023-03-01T12:04:28;4.05;;;0.90;;
44147;SDS011;29810;55.848;37.368;2023-03-01T12:07:39;2.90;;;0.75;;
44147;SDS011;29810;55.848;37.368;2023-03-01T12:14:47;2.85;;;0.90;;
44147;SDS011;29810;55.848;37.368;2023-03-01T12:18:28;2.85;;;0.90;;
44147;SDS011;29810;55.848;37.368;2023-03-01T12:21:53;4.03;;;0.85;;
44147;SDS011;29810;55.848;37.368;2023-03-01T12:31:31;2.40;;;0.93;;
44147;SDS011;29810;55.848;37.368;2023-03-01T12:34:53;2.40;;;0.80;;
44147;SDS011;29810;55.848;37.368;2023-03-01T12:38:17;2.85;;;0.88;;
44147;SDS011;29810;55.848;37.368;2023-03-01T12:41:29;3.90;;;0.82;;
44147;SDS011;29810;55.848;37.368;2023-03-01T12:51:23;3.25;;;1.10;;
44147;SDS011;29810;55.848;37.368;2023-03-01T12:54:31;1.52;;;0.62;;
44147;SDS011;29810;55.848;37.368;2023-03-01T12:57:41;3.78;;;0.90;;
44147;SDS011;29810;55.848;37.368;2023-03-01T13:10:49;2.33;;;0.62;;
44147;SDS011;29810;55.848;37.368;2023-03-01T13:17:43;2.78;;;0.70;;
44147;SDS011;29810;55.848;37.368;2023-03-01T13:20:47;3.83;;;0.85;;
44147;SDS011;29810;55.848;37.368;2023-03-01T13:23:51;2.22;;;0.90;;
44147;SDS011;29810;55.848;37.368;2023-03-01T13:36:46;2.45;;;0.82;;
44147;SDS011;29810;55.848;37.368;2023-03-01T13:39:49;2.85;;;0.80;;
44147;SDS011;29810;55.848;37.368;2023-03-01T13:42:55;3.25;;;0.80;;
44147;SDS011;29810;55.848;37.368;2023-03-01T13:45:57;2.37;;;0.80;;
44147;SDS011;29810;55.848;37.368;2023-03-01T13:49:00;2.17;;;0.75;;
44147;SDS011;29810;55.848;37.368;2023-03-01T13:52:01;1.58;;;0.77;;
44147;SDS011;29810;55.848;37.368;2023-03-01T13:55:17;3.42;;;0.70;;
44147;SDS011;29810;55.848;37.368;2023-03-01T13:58:25;2.70;;;0.70;;
44147;SDS011;29810;55.848;37.368;2023-03-01T14:01:33;2.42;;;0.80;;
44147;SDS011;29810;55.848;37.368;2023-03-01T14:04:37;3.55;;;0.80;;
44147;SDS011;29810;55.848;37.368;2023-03-01T14:07:39;1.98;;;0.80;;
44147;SDS011;29810;55.848;37.368;2023-03-01T14:14:29;1.67;;;0.70;;
44147;SDS011;29810;55.848;37.368;2023-03-01T14:20:41;2.78;;;0.90;;
44147;SDS011;29810;55.848;37.368;2023-03-01T14:23:44;3.83;;;0.85;;
44147;SDS011;29810;55.848;37.368;2023-03-01T14:26:51;3.50;;;0.80;;
44147;SDS011;29810;55.848;37.368;2023-03-01T14:29:53;2.10;;;0.90;;
44147;SDS011;29810;55.848;37.368;2023-03-01T14:33:01;2.90;;;0.95;;
44147;SDS011;29810;55.848;37.368;2023-03-01T14:36:09;2.42;;;1.02;;
44147;SDS011;29810;55.848;37.368;2023-03-01T14:39:27;2.47;;;1.10;;
44147;SDS011;29810;55.848;37.368;2023-03-01T14:42:39;2.40;;;1.10;;
44147;SDS011;29810;55.848;37.368;2023-03-01T14:45:42;4.20;;;1.23;;
44147;SDS011;29810;55.848;37.368;2023-03-01T14:48:51;4.35;;;1.23;;
44147;SDS011;29810;55.848;37.368;2023-03-01T14:54:57;2.58;;;0.98;;
44147;SDS011;29810;55.848;37.368;2023-03-01T14:57:58;3.75;;;0.90;;
44147;SDS011;29810;55.848;37.368;2023-03-01T15:01:01;2.20;;;1.00;;
44147;SDS011;29810;55.848;37.368;2023-03-01T15:04:04;2.33;;;1.00;;
44147;SDS011;29810;55.848;37.368;2023-03-01T15:07:09;4.90;;;1.30;;
44147;SDS011;29810;55.848;37.368;2023-03-01T15:10:17;2.65;;;1.10;;
44147;SDS011;29810;55.848;37.368;2023-03-01T15:13:23;3.30;;;1.33;;
44147;SDS011;29810;55.848;37.368;2023-03-01T15:16:27;3.85;;;1.30;;
44147;SDS011;29810;55.848;37.368;2023-03-01T15:19:33;3.00;;;0.98;;
44147;SDS011;29810;55.848;37.368;2023-03-01T15:22:37;3.53;;;0.90;;
44147;SDS011;29810;55.848;37.368;2023-03-01T15:25:43;1.98;;;0.60;;
44147;SDS011;29810;55.848;37.368;2023-03-01T15:28:48;2.67;;;0.82;;
44147;SDS011;29810;55.848;37.368;2023-03-01T15:32:00;2.08;;;0.80;;
44147;SDS011;29810;55.848;37.368;2023-03-01T15:38:53;3.28;;;0.80;;
44147;SDS011;29810;55.848;37.368;2023-03-01T15:42:00;1.92;;;0.60;;
44147;SDS011;29810;55.848;37.368;2023-03-01T15:45:38;3.85;;;0.70;;
44147;SDS011;29810;55.848;37.368;2023-03-01T15:48:39;2.95;;;0.98;;
44147;SDS011;29810;55.848;37.368;2023-03-01T15:51:46;2.20;;;0.75;;
44147;SDS011;29810;55.848;37.368;2023-03-01T15:55:03;2.67;;;0.90;;
44147;SDS011;29810;55.848;37.368;2023-03-01T15:58:11;3.42;;;1.02;;
44147;SDS011;29810;55.848;37.368;2023-03-01T16:01:15;3.22;;;0.93;;
44147;SDS011;29810;55.848;37.368;2023-03-01T16:04:20;3.70;;;1.12;;
44147;SDS011;29810;55.848;37.368;2023-03-01T16:07:23;2.75;;;0.90;;
44147;SDS011;29810;55.848;37.368;2023-03-01T16:10:25;5.20;;;1.08;;
44147;SDS011;29810;55.848;37.368;2023-03-01T16:13:28;3.03;;;0.80;;
44147;SDS011;29810;55.848;37.368;2023-03-01T16:16:30;3.90;;;0.93;;
44147;SDS011;29810;55.848;37.368;2023-03-01T16:19:32;2.90;;;0.98;;
44147;SDS011;29810;55.848;37.368;2023-03-01T16:22:34;3.08;;;0.80;;
44147;SDS011;29810;55.848;37.368;2023-03-01T16:25:35;1.95;;;0.65;;
44147;SDS011;29810;55.848;37.368;2023-03-01T16:28:42;2.42;;;0.80;;
44147;SDS011;29810;55.848;37.368;2023-03-01T16:31:46;2.80;;;0.80;;
44147;SDS011;29810;55.848;37.368;2023-03-01T16:34:52;3.50;;;0.82;;
44147;SDS011;29810;55.848;37.368;2023-03-01T16:37:56;1.90;;;0.60;;
44147;SDS011;29810;55.848;37.368;2023-03-01T16:41:01;3.12;;;0.80;;
44147;SDS011;29810;55.848;37.368;2023-03-01T16:44:02;3.03;;;0.80;;
44147;SDS011;29810;55.848;37.368;2023-03-01T16:47:04;2.05;;;0.70;;
44147;SDS011;29810;55.848;37.368;2023-03-01T16:50:07;4.15;;;0.90;;
44147;SDS011;29810;55.848;37.368;2023-03-01T16:53:10;3.28;;;0.93;;
44147;SDS011;29810;55.848;37.368;2023-03-01T16:56:12;2.53;;;0.80;;
44147;SDS011;29810;55.848;37.368;2023-03-01T16:59:14;3.03;;;1.00;;
44147;SDS011;29810;55.848;37.368;2023-03-01T17:02:16;3.08;;;1.15;;
44147;SDS011;29810;55.848;37.368;2023-03-01T17:05:20;1.65;;;0.80;;
44147;SDS011;29810;55.848;37.368;2023-03-01T17:08:24;3.55;;;1.00;;
44147;SDS011;29810;55.848;37.368;2023-03-01T17:11:26;3.05;;;1.02;;
44147;SDS011;29810;55.848;37.368;2023-03-01T17:14:28;3.10;;;1.08;;
44147;SDS011;29810;55.848;37.368;2023-03-01T17:17:30;4.78;;;1.17;;
44147;SDS011;29810;55.848;37.368;2023-03-01T17:20:32;3.65;;;1.45;;
44147;SDS011;29810;55.848;37.368;2023-03-01T17:23:35;3.47;;;1.27;;
44147;SDS011;29810;55.848;37.368;2023-03-01T17:26:47;3.60;;;1.27;;
44147;SDS011;29810;55.848;37.368;2023-03-01T17:29:49;3.72;;;1.20;;
44147;SDS011;29810;55.848;37.368;2023-03-01T17:32:50;5.10;;;1.30;;
44147;SDS011;29810;55.848;37.368;2023-03-01T17:35:56;5.00;;;1.00;;
44147;SDS011;29810;55.848;37.368;2023-03-01T17:38:58;4.80;;;1.20;;
44147;SDS011;29810;55.848;37.368;2023-03-01T17:42:00;2.25;;;0.85;;
44147;SDS011;29810;55.848;37.368;2023-03-01T17:45:05;4.82;;;1.10;;
44147;SDS011;29810;55.848;37.368;2023-03-01T17:48:07;4.20;;;1.35;;
44147;SDS011;29810;55.848;37.368;2023-03-01T17:51:10;3.85;;;1.10;;
44147;SDS011;29810;55.848;37.368;2023-03-01T17:54:12;2.33;;;1.02;;
44147;SDS011;29810;55.848;37.368;2023-03-01T17:57:13;2.72;;;1.10;;
44147;SDS011;29810;55.848;37.368;2023-03-01T18:00:15;2.45;;;0.98;;
44147;SDS011;29810;55.848;37.368;2023-03-01T18:03:18;4.87;;;1.10;;
44147;SDS011;29810;55.848;37.368;2023-03-01T18:06:22;2.47;;;0.88;;
44147;SDS011;29810;55.848;37.368;2023-03-01T18:09:26;3.20;;;1.25;;
44147;SDS011;29810;55.848;37.368;2023-03-01T18:12:29;3.05;;;1.12;;
44147;SDS011;29810;55.848;37.368;2023-03-01T18:15:32;3.22;;;0.90;;
44147;SDS011;29810;55.848;37.368;2023-03-01T18:18:34;3.67;;;1.35;;
44147;SDS011;29810;55.848;37.368;2023-03-01T18:21:36;3.62;;;1.30;;
44147;SDS011;29810;55.848;37.368;2023-03-01T18:24:37;2.75;;;1.10;;
44147;SDS011;29810;55.848;37.368;2023-03-01T18:27:40;3.67;;;1.00;;
44147;SDS011;29810;55.848;37.368;2023-03-01T18:30:41;2.90;;;1.17;;
44147;SDS011;29810;55.848;37.368;2023-03-01T18:33:44;4.10;;;1.40;;
44147;SDS011;29810;55.848;37.368;2023-03-01T18:36:46;4.45;;;1.30;;
44147;SDS011;29810;55.848;37.368;2023-03-01T18:39:49;4.12;;;1.20;;
44147;SDS011;29810;55.848;37.368;2023-03-01T18:42:52;4.10;;;1.17;;
44147;SDS011;29810;55.848;37.368;2023-03-01T18:45:55;3.40;;;1.25;;
44147;SDS011;29810;55.848;37.368;2023-03-01T18:48:58;3.85;;;1.27;;
44147;SDS011;29810;55.848;37.368;2023-03-01T18:51:59;3.87;;;1.17;;
44147;SDS011;29810;55.848;37.368;2023-03-01T18:55:01;4.82;;;1.50;;
44147;SDS011;29810;55.848;37.368;2023-03-01T18:58:04;4.10;;;1.33;;
44147;SDS011;29810;55.848;37.368;2023-03-01T19:01:10;2.90;;;1.12;;
44147;SDS011;29810;55.848;37.368;2023-03-01T19:04:14;3.47;;;1.33;;
44147;SDS011;29810;55.848;37.368;2023-03-01T19:07:17;4.32;;;1.50;;
44147;SDS011;29810;55.848;37.368;2023-03-01T19:10:19;4.00;;;1.30;;
44147;SDS011;29810;55.848;37.368;2023-03-01T19:13:20;3.78;;;1.50;;
44147;SDS011;29810;55.848;37.368;2023-03-01T19:16:23;4.35;;;1.50;;
44147;SDS011;29810;55.848;37.368;2023-03-01T19:19:28;4.35;;;1.15;;
44147;SDS011;29810;55.848;37.368;2023-03-01T19:22:30;4.62;;;1.25;;
44147;SDS011;29810;55.848;37.368;2023-03-01T19:25:34;3.12;;;1.20;;
44147;SDS011;29810;55.848;37.368;2023-03-01T19:28:36;3.67;;;1.25;;
44147;SDS011;29810;55.848;37.368;2023-03-01T19:31:38;4.70;;;1.12;;
44147;SDS011;29810;55.848;37.368;2023-03-01T19:34:40;3.78;;;1.00;;
44147;SDS011;29810;55.848;37.368;2023-03-01T19:37:46;3.05;;;1.27;;
44147;SDS011;29810;55.848;37.368;2023-03-01T19:40:48;4.50;;;1.10;;
44147;SDS011;29810;55.848;37.368;2023-03-01T19:43:49;3.17;;;1.25;;
44147;SDS011;29810;55.848;37.368;2023-03-01T19:46:51;3.50;;;1.20;;